Time;durP1;ratioP1;P1;durP2;ratioP2;P2;SDS_P1;SDS_P2;PMS_P1;PMS_P2;Temp;Humidity;BMP_temperature;BMP_pressure;BME280_temperature;BME280_humidity;BME280_pressure;Samples;Min_cycle;Max_cycle;Signal;HPM_P1;HPM_P2
2022/08/07 00:01:09;;;;;;;11.45;7.18;;;11.30;99.90;;;;;;5044556;28;20394;-68
2022/08/07 00:03:35;;;;;;;11.25;7.22;;;11.30;99.90;;;;;;5043324;28;20413;-68
2022/08/07 00:06:01;;;;;;;9.68;6.72;;;11.30;99.90;;;;;;5045751;28;20561;-68
2022/08/07 00:08:27;;;;;;;12.45;7.18;;;11.30;99.90;;;;;;5043397;28;20093;-68
2022/08/07 00:10:53;;;;;;;10.93;6.90;;;11.40;99.90;;;;;;5045949;28;20472;-68
2022/08/07 00:13:20;;;;;;;11.07;7.47;;;11.20;99.90;;;;;;5048455;28;20049;-68
2022/08/07 00:15:47;;;;;;;10.63;7.00;;;11.20;99.90;;;;;;5045211;28;20045;-68
2022/08/07 00:18:14;;;;;;;10.35;7.07;;;11.20;99.90;;;;;;5043468;28;20076;-68
2022/08/07 00:20:40;;;;;;;11.50;7.43;;;11.20;99.90;;;;;;5044089;28;20037;-68
2022/08/07 00:23:06;;;;;;;11.07;7.43;;;11.20;99.90;;;;;;5045556;28;20527;-68
2022/08/07 00:25:32;;;;;;;11.45;7.13;;;11.20;99.90;;;;;;5046652;28;20121;-68
2022/08/07 00:27:58;;;;;;;12.23;6.95;;;11.10;99.90;;;;;;5041954;28;20636;-68
2022/08/07 00:30:24;;;;;;;10.25;6.68;;;11.10;99.90;;;;;;5043585;28;20490;-68
2022/08/07 00:32:51;;;;;;;12.15;6.93;;;11.10;99.90;;;;;;5042641;28;20501;-68
2022/08/07 00:35:18;;;;;;;11.95;7.05;;;11.10;99.90;;;;;;5042405;28;20413;-69
2022/08/07 00:37:44;;;;;;;12.70;7.03;;;11.10;99.90;;;;;;5041883;28;20056;-68
2022/08/07 00:40:10;;;;;;;10.65;7.30;;;11.10;99.90;;;;;;5042488;28;20044;-68
2022/08/07 00:42:36;;;;;;;9.70;6.43;;;11.00;99.90;;;;;;5039420;28;20080;-69
2022/08/07 00:45:03;;;;;;;12.88;7.07;;;11.00;99.90;;;;;;5043565;28;20065;-69
2022/08/07 00:47:30;;;;;;;11.75;7.15;;;11.00;99.90;;;;;;5044001;28;20041;-68
2022/08/07 00:49:55;;;;;;;12.13;6.45;;;11.00;99.90;;;;;;5040838;28;20119;-68
2022/08/07 00:52:24;;;;;;;10.50;6.72;;;11.00;99.90;;;;;;5045389;28;20517;-68
2022/08/07 00:54:51;;;;;;;10.65;6.80;;;10.90;99.90;;;;;;5041519;28;20567;-68
2022/08/07 00:57:24;;;;;;;11.48;6.93;;;10.90;99.90;;;;;;5028819;28;20033;-68
2022/08/07 00:59:50;;;;;;;10.48;6.90;;;10.80;99.90;;;;;;5043467;28;20050;-68
2022/08/07 01:02:16;;;;;;;11.48;7.05;;;10.80;99.90;;;;;;5042566;28;20409;-69
2022/08/07 01:04:42;;;;;;;11.27;6.93;;;10.80;99.90;;;;;;5040261;28;20041;-68
2022/08/07 01:07:08;;;;;;;13.00;7.03;;;10.80;99.90;;;;;;5019983;28;20494;-68
2022/08/07 01:09:34;;;;;;;11.95;7.63;;;10.70;99.90;;;;;;5045727;28;20374;-68
2022/08/07 01:12:00;;;;;;;11.00;7.53;;;10.70;99.90;;;;;;5037275;28;20057;-68
2022/08/07 01:14:26;;;;;;;13.10;7.60;;;10.60;99.90;;;;;;5034285;28;20052;-68
2022/08/07 01:16:53;;;;;;;10.98;7.35;;;10.70;99.90;;;;;;5031546;28;20408;-69
2022/08/07 01:19:21;;;;;;;10.95;7.05;;;10.70;99.90;;;;;;5038059;28;20049;-68
2022/08/07 01:21:49;;;;;;;10.43;7.30;;;10.70;99.90;;;;;;5057836;28;20417;-68
2022/08/07 01:24:15;;;;;;;12.65;7.47;;;10.60;99.90;;;;;;5040637;28;20049;-68
2022/08/07 01:26:41;;;;;;;12.57;8.15;;;10.70;99.90;;;;;;5043596;28;20045;-68
2022/08/07 01:29:07;;;;;;;11.60;6.85;;;10.60;99.90;;;;;;5044161;28;20059;-69
2022/08/07 01:31:33;;;;;;;12.45;7.03;;;10.60;99.90;;;;;;5041195;28;20049;-68
2022/08/07 01:34:01;;;;;;;9.93;7.05;;;10.60;99.90;;;;;;5040688;28;20639;-69
2022/08/07 01:36:28;;;;;;;11.43;6.93;;;10.60;99.90;;;;;;5037986;28;20049;-67
2022/08/07 01:38:55;;;;;;;11.60;7.40;;;10.50;99.90;;;;;;5043380;28;20085;-68
2022/08/07 01:41:22;;;;;;;12.15;8.13;;;10.60;99.90;;;;;;5044882;28;20044;-69
2022/08/07 01:43:49;;;;;;;11.05;6.97;;;10.80;99.90;;;;;;5027076;28;20041;-68
2022/08/07 01:46:16;;;;;;;12.65;7.38;;;10.50;99.90;;;;;;5044353;28;20037;-68
2022/08/07 01:48:43;;;;;;;11.88;7.55;;;10.50;99.90;;;;;;5044189;28;20570;-69
2022/08/07 01:51:13;;;;;;;11.95;7.28;;;10.40;99.90;;;;;;5041066;28;20045;-68
2022/08/07 01:53:43;;;;;;;11.57;7.65;;;10.40;99.90;;;;;;5043444;28;20056;-68
2022/08/07 01:56:13;;;;;;;11.18;6.93;;;10.40;99.90;;;;;;5047685;28;20044;-69
2022/08/07 01:58:47;;;;;;;11.60;7.25;;;10.40;99.90;;;;;;5047191;28;20566;-68
2022/08/07 02:01:20;;;;;;;18.02;8.23;;;10.40;99.90;;;;;;5043951;28;20053;-68
2022/08/07 02:03:52;;;;;;;12.55;7.70;;;10.30;99.90;;;;;;5051041;28;20045;-69
2022/08/07 02:06:18;;;;;;;;;;;10.30;99.90;;;;;;5042182;28;20037;-68
2022/08/07 02:08:46;;;;;;;11.73;7.22;;;10.30;99.90;;;;;;5043961;28;19920;-68
2022/08/07 02:11:12;;;;;;;12.82;7.38;;;10.30;99.90;;;;;;5045956;28;20057;-68
2022/08/07 02:13:40;;;;;;;12.32;7.50;;;10.30;99.90;;;;;;5037938;28;20041;-68
2022/08/07 02:16:07;;;;;;;11.68;7.63;;;10.30;99.90;;;;;;5044737;28;20048;-68
2022/08/07 02:18:36;;;;;;;13.40;7.43;;;10.30;99.90;;;;;;5045014;28;20037;-68
2022/08/07 02:21:04;;;;;;;12.70;7.68;;;10.20;99.90;;;;;;5042950;28;20059;-68
2022/08/07 02:23:33;;;;;;;11.40;7.10;;;10.20;99.90;;;;;;5040312;28;20049;-68
2022/08/07 02:26:01;;;;;;;12.32;7.22;;;10.20;99.90;;;;;;5048194;28;20044;-68
2022/08/07 02:28:30;;;;;;;10.82;7.30;;;10.10;99.90;;;;;;5045901;28;20049;-68
2022/08/07 02:30:57;;;;;;;13.13;8.00;;;10.20;99.90;;;;;;5046376;28;20494;-68
2022/08/07 02:33:28;;;;;;;12.35;8.10;;;10.10;99.90;;;;;;5048901;28;20048;-68
2022/08/07 02:35:55;;;;;;;13.90;7.80;;;10.20;99.90;;;;;;5047984;28;20525;-68
2022/08/07 02:38:26;;;;;;;12.27;7.45;;;10.20;99.90;;;;;;5048473;28;20052;-68
2022/08/07 02:40:53;;;;;;;;;;;10.20;99.90;;;;;;5047049;28;20106;-68
2022/08/07 02:43:19;;;;;;;11.88;7.78;;;10.00;99.90;;;;;;5045074;28;19999;-68
2022/08/07 02:45:46;;;;;;;12.73;7.53;;;10.10;99.90;;;;;;5031324;28;20490;-68
2022/08/07 02:48:13;;;;;;;13.50;7.05;;;10.10;99.90;;;;;;5047023;28;20041;-68
2022/08/07 02:50:41;;;;;;;14.27;8.35;;;10.10;99.90;;;;;;5047610;28;20049;-68
2022/08/07 02:53:30;;;;;;;13.70;7.45;;;10.10;99.90;;;;;;5047261;28;20045;-68
2022/08/07 02:55:58;;;;;;;15.52;8.55;;;10.20;99.90;;;;;;5047105;28;20159;-68
2022/08/07 02:58:25;;;;;;;13.30;8.23;;;10.10;99.90;;;;;;5039617;28;20132;-68
2022/08/07 03:00:54;;;;;;;12.57;7.38;;;10.20;99.90;;;;;;5037381;28;20622;-69
2022/08/07 03:03:22;;;;;;;14.07;7.80;;;10.10;99.90;;;;;;5038409;28;20397;-68
2022/08/07 03:05:50;;;;;;;13.57;8.05;;;10.30;99.90;;;;;;5046009;28;20056;-68
2022/08/07 03:08:17;;;;;;;12.43;7.47;;;10.10;99.90;;;;;;5041087;28;20059;-68
2022/08/07 03:10:45;;;;;;;11.43;7.28;;;10.10;99.90;;;;;;5036606;28;20062;-68
2022/08/07 03:13:12;;;;;;;13.80;7.32;;;10.10;99.90;;;;;;5042044;28;20057;-68
2022/08/07 03:15:38;;;;;;;13.55;7.20;;;10.10;99.90;;;;;;5043832;28;20048;-68
2022/08/07 03:18:05;;;;;;;11.93;7.43;;;10.20;99.90;;;;;;5036745;28;20123;-68
2022/08/07 03:20:30;;;;;;;12.52;6.80;;;10.20;99.90;;;;;;5044178;28;20522;-68
2022/08/07 03:22:58;;;;;;;14.43;7.97;;;10.20;99.90;;;;;;5046542;28;20600;-68
2022/08/07 03:25:26;;;;;;;12.15;7.72;;;10.20;99.90;;;;;;5047276;28;20442;-68
2022/08/07 03:27:53;;;;;;;11.73;8.10;;;10.10;99.90;;;;;;5046491;28;20090;-68
2022/08/07 03:30:19;;;;;;;13.05;8.00;;;10.20;99.90;;;;;;5048457;28;20422;-68
2022/08/07 03:32:47;;;;;;;14.38;8.07;;;10.10;99.90;;;;;;5040121;28;20072;-68
2022/08/07 03:35:17;;;;;;;12.10;7.80;;;10.20;99.90;;;;;;5045609;28;20102;-68
2022/08/07 03:37:44;;;;;;;11.90;7.43;;;10.20;99.90;;;;;;5053269;28;20046;-69
2022/08/07 03:40:10;;;;;;;13.13;8.38;;;10.10;99.90;;;;;;5036788;28;20409;-68
2022/08/07 03:42:36;;;;;;;12.82;7.82;;;10.20;99.90;;;;;;5023648;28;20138;-68
2022/08/07 03:45:04;;;;;;;11.85;7.30;;;10.10;99.90;;;;;;5045423;28;20079;-68
2022/08/07 03:47:30;;;;;;;11.90;7.50;;;10.10;99.90;;;;;;5043763;28;20076;-68
2022/08/07 03:49:57;;;;;;;12.45;7.63;;;10.10;99.90;;;;;;5044768;28;20045;-69
2022/08/07 03:52:26;;;;;;;11.98;7.65;;;10.00;99.90;;;;;;5044119;28;20041;-68
2022/08/07 03:54:59;;;;;;;11.27;6.82;;;10.00;99.90;;;;;;5046202;28;20128;-69
2022/08/07 03:57:28;;;;;;;12.00;7.68;;;10.00;99.90;;;;;;5043290;28;20029;-68
2022/08/07 03:59:54;;;;;;;11.70;7.53;;;10.10;99.90;;;;;;5038926;28;20040;-68
2022/08/07 04:02:21;;;;;;;11.27;6.88;;;10.00;99.90;;;;;;5046371;28;20072;-68
2022/08/07 04:04:48;;;;;;;11.95;7.35;;;10.00;99.90;;;;;;5024904;28;20041;-68
2022/08/07 04:07:18;;;;;;;14.88;8.27;;;10.00;99.90;;;;;;5025091;28;20128;-68
2022/08/07 04:09:45;;;;;;;13.63;8.23;;;10.00;99.90;;;;;;5042296;28;20037;-68
2022/08/07 04:12:12;;;;;;;12.38;7.43;;;10.10;99.90;;;;;;5037711;28;20052;-68
2022/08/07 04:14:39;;;;;;;14.68;7.70;;;10.30;99.90;;;;;;5040730;28;20520;-68
2022/08/07 04:17:05;;;;;;;11.88;7.55;;;10.00;99.90;;;;;;5038126;28;20041;-68
2022/08/07 04:19:31;;;;;;;12.15;6.97;;;10.00;99.90;;;;;;5031692;28;20041;-68
2022/08/07 04:21:57;;;;;;;11.70;7.43;;;10.00;99.90;;;;;;5037826;28;20532;-68
2022/08/07 04:24:24;;;;;;;14.05;8.13;;;10.10;99.90;;;;;;5041070;28;20559;-68
2022/08/07 04:26:50;;;;;;;14.65;7.90;;;10.00;99.90;;;;;;5040371;28;20445;-68
2022/08/07 04:29:16;;;;;;;14.35;7.57;;;10.10;99.90;;;;;;5031234;28;20170;-69
2022/08/07 04:31:42;;;;;;;15.25;7.95;;;10.10;99.90;;;;;;5028485;28;20136;-68
2022/08/07 04:34:09;;;;;;;14.02;8.00;;;10.10;99.90;;;;;;5032192;28;20502;-69
2022/08/07 04:36:35;;;;;;;15.07;7.35;;;10.10;99.90;;;;;;5034153;28;20055;-69
2022/08/07 04:39:01;;;;;;;11.80;7.43;;;10.10;99.90;;;;;;5039707;28;20124;-69
2022/08/07 04:41:27;;;;;;;14.98;8.18;;;10.20;99.90;;;;;;5037198;28;20064;-69
2022/08/07 04:43:55;;;;;;;12.63;7.45;;;10.20;99.90;;;;;;5035806;28;20076;-69
2022/08/07 04:46:24;;;;;;;12.35;7.57;;;10.30;99.90;;;;;;5055871;28;20098;-69
2022/08/07 04:49:05;;;;;;;13.65;7.65;;;10.70;99.90;;;;;;5021936;28;20187;-69
2022/08/07 04:52:01;;;;;;;11.35;7.03;;;11.70;99.90;;;;;;5041301;28;20112;-68
2022/08/07 04:54:41;;;;;;;9.45;5.72;;;12.90;99.90;;;;;;5042751;28;20041;-69
2022/08/07 04:57:28;;;;;;;11.50;6.38;;;13.90;99.90;;;;;;5041096;28;20448;-68
2022/08/07 05:00:05;;;;;;;12.55;6.10;;;14.60;99.90;;;;;;5042713;28;20135;-68
2022/08/07 05:02:40;;;;;;;10.38;5.97;;;15.60;99.90;;;;;;5043377;28;20425;-68
2022/08/07 05:05:17;;;;;;;11.52;5.60;;;16.50;99.90;;;;;;5041956;28;20041;-69
2022/08/07 05:08:06;;;;;;;10.20;6.50;;;17.30;99.90;;;;;;5039152;28;20927;-69
2022/08/07 05:10:44;;;;;;;9.98;5.55;;;18.10;99.90;;;;;;5039101;28;20046;-68
2022/08/07 05:13:45;;;;;;;9.10;4.80;;;18.70;99.90;;;;;;5041919;28;20053;-68
2022/08/07 05:16:14;;;;;;;11.75;5.13;;;19.50;99.90;;;;;;5022482;28;20080;-68
2022/08/07 05:18:49;;;;;;;8.32;5.18;;;20.10;99.90;;;;;;5028282;28;20037;-68
2022/08/07 05:21:17;;;;;;;8.90;4.68;;;20.80;99.90;;;;;;5016979;28;20041;-68
2022/08/07 05:23:54;;;;;;;7.82;4.78;;;21.20;99.90;;;;;;5013491;28;20044;-68
2022/08/07 05:26:23;;;;;;;8.52;4.88;;;21.70;99.90;;;;;;5026387;28;20049;-68
2022/08/07 05:28:52;;;;;;;7.35;4.63;;;21.00;99.90;;;;;;5020662;28;20274;-68
2022/08/07 05:31:24;;;;;;;7.93;4.50;;;20.00;99.90;;;;;;5023502;28;20500;-68
2022/08/07 05:33:52;;;;;;;8.35;4.82;;;19.20;99.90;;;;;;5015431;28;20048;-68
2022/08/07 05:36:21;;;;;;;10.98;4.60;;;18.40;99.90;;;;;;5036144;28;20053;-68
2022/08/07 05:38:49;;;;;;;7.60;4.63;;;17.60;99.90;;;;;;5019279;28;20049;-68
2022/08/07 05:41:16;;;;;;;12.00;4.90;;;17.00;99.90;;;;;;5027765;28;20513;-68
2022/08/07 05:43:45;;;;;;;8.23;4.68;;;16.70;99.90;;;;;;5028133;28;20071;-68
2022/08/07 05:46:11;;;;;;;8.43;4.35;;;16.30;99.90;;;;;;5019037;28;20072;-68
2022/08/07 05:48:39;;;;;;;7.50;4.65;;;15.90;99.90;;;;;;5026279;28;20041;-68
2022/08/07 05:51:06;;;;;;;11.95;5.65;;;15.70;99.90;;;;;;5023426;28;20084;-68
2022/08/07 05:53:32;;;;;;;12.32;4.97;;;15.40;99.90;;;;;;5028469;28;20365;-68
2022/08/07 05:55:58;;;;;;;9.40;4.65;;;15.30;99.90;;;;;;5027989;28;20052;-68
2022/08/07 05:58:26;;;;;;;8.70;4.88;;;15.00;99.90;;;;;;5034924;28;20175;-68
2022/08/07 06:00:53;;;;;;;7.72;4.70;;;15.00;99.90;;;;;;5039153;28;20099;-68
2022/08/07 06:03:21;;;;;;;7.22;4.40;;;15.10;99.90;;;;;;5040234;28;20055;-68
2022/08/07 06:05:48;;;;;;;9.80;4.35;;;15.00;99.90;;;;;;5032581;28;20072;-68
2022/08/07 06:08:15;;;;;;;8.07;4.78;;;14.80;99.90;;;;;;5019680;28;20529;-68
2022/08/07 06:10:42;;;;;;;7.72;4.90;;;14.80;99.90;;;;;;5042701;28;20123;-68
2022/08/07 06:13:08;;;;;;;9.63;4.40;;;14.70;99.90;;;;;;5041720;28;20049;-68
2022/08/07 06:15:35;;;;;;;7.30;4.15;;;14.70;99.90;;;;;;5052376;28;20053;-68
2022/08/07 06:18:02;;;;;;;7.70;4.30;;;14.60;99.90;;;;;;5029516;28;20041;-68
2022/08/07 06:20:30;;;;;;;9.95;4.68;;;14.60;99.90;;;;;;5035899;28;20403;-68
2022/08/07 06:22:58;;;;;;;13.07;4.85;;;14.60;99.90;;;;;;5042325;28;20052;-68
2022/08/07 06:25:23;;;;;;;12.60;3.83;;;14.60;99.90;;;;;;5038386;28;20044;-68
2022/08/07 06:27:49;;;;;;;9.65;4.20;;;14.60;99.90;;;;;;5045250;28;20049;-68
2022/08/07 06:30:15;;;;;;;13.00;4.43;;;14.60;99.90;;;;;;5035296;28;20049;-68
2022/08/07 06:32:41;;;;;;;8.10;4.40;;;14.60;99.90;;;;;;5037034;28;20071;-68
2022/08/07 06:35:06;;;;;;;9.07;3.85;;;14.70;99.90;;;;;;5034221;28;20604;-68
2022/08/07 06:37:32;;;;;;;7.82;4.28;;;14.80;99.90;;;;;;5043230;28;20053;-68
2022/08/07 06:39:58;;;;;;;7.90;4.38;;;15.00;99.90;;;;;;5027556;28;20049;-68
2022/08/07 06:42:28;;;;;;;7.63;4.05;;;15.10;99.90;;;;;;5036386;28;20045;-68
2022/08/07 06:44:56;;;;;;;9.35;4.40;;;15.10;99.90;;;;;;5044435;28;20049;-68
2022/08/07 06:47:22;;;;;;;9.00;4.90;;;15.10;99.90;;;;;;5040868;28;20034;-68
2022/08/07 06:49:48;;;;;;;8.38;4.90;;;15.20;99.90;;;;;;5041266;28;20047;-69
2022/08/07 06:52:16;;;;;;;7.35;4.00;;;15.20;99.90;;;;;;5032266;28;20045;-68
2022/08/07 06:54:45;;;;;;;9.48;4.40;;;15.30;99.90;;;;;;5030892;28;20132;-70
2022/08/07 06:57:12;;;;;;;8.88;4.68;;;15.40;99.90;;;;;;5031652;28;20090;-70
2022/08/07 06:59:40;;;;;;;9.60;4.75;;;15.40;99.90;;;;;;5030832;28;20120;-69
2022/08/07 07:02:11;;;;;;;7.45;4.47;;;15.40;99.90;;;;;;5032192;28;20039;-69
2022/08/07 07:04:37;;;;;;;9.13;4.70;;;15.50;99.90;;;;;;5032498;28;20049;-70
2022/08/07 07:07:06;;;;;;;6.93;4.40;;;15.60;99.90;;;;;;5042408;28;20041;-70
2022/08/07 07:09:32;;;;;;;7.28;3.83;;;15.70;99.90;;;;;;5035656;28;20053;-70
2022/08/07 07:12:06;;;;;;;7.28;3.55;;;15.70;99.90;;;;;;5041797;28;20080;-69
2022/08/07 07:14:36;;;;;;;7.90;4.88;;;15.80;99.90;;;;;;5039046;28;20045;-70
2022/08/07 07:17:09;;;;;;;7.47;4.18;;;15.90;99.90;;;;;;5039636;28;20362;-69
2022/08/07 07:19:42;;;;;;;9.07;4.10;;;16.10;99.90;;;;;;5021919;28;20659;-69
2022/08/07 07:22:10;;;;;;;7.22;4.00;;;16.10;99.90;;;;;;5032965;28;20045;-69
2022/08/07 07:24:38;;;;;;;7.70;3.22;;;16.40;99.90;;;;;;5041172;28;20417;-69
2022/08/07 07:27:07;;;;;;;8.60;3.17;;;16.60;99.90;;;;;;5039630;28;20041;-70
2022/08/07 07:29:37;;;;;;;7.97;3.55;;;16.80;99.90;;;;;;5046416;28;20116;-68
2022/08/07 07:32:06;;;;;;;6.40;3.40;;;17.00;99.90;;;;;;5040474;28;20045;-68
2022/08/07 07:34:35;;;;;;;8.27;3.25;;;17.20;99.90;;;;;;5042049;28;20067;-69
2022/08/07 07:37:03;;;;;;;7.03;3.67;;;17.50;99.90;;;;;;5042249;28;20119;-68
2022/08/07 07:39:30;;;;;;;6.63;3.30;;;17.90;99.90;;;;;;5026120;28;20079;-68
2022/08/07 07:41:56;;;;;;;6.95;3.40;;;18.40;99.90;;;;;;5035253;28;20037;-68
2022/08/07 07:44:23;;;;;;;6.30;3.38;;;18.80;99.90;;;;;;5042601;28;20438;-69
2022/08/07 07:46:50;;;;;;;6.53;3.38;;;19.30;99.90;;;;;;5042157;28;20154;-69
2022/08/07 07:49:18;;;;;;;9.68;4.07;;;19.80;99.90;;;;;;5033942;28;20456;-69
2022/08/07 07:51:47;;;;;;;9.65;4.22;;;20.20;99.90;;;;;;5035047;28;20076;-68
2022/08/07 07:54:15;;;;;;;7.68;3.33;;;21.30;99.90;;;;;;5035755;28;20459;-68
2022/08/07 07:56:42;;;;;;;7.80;3.97;;;22.10;99.90;;;;;;5043272;28;20090;-69
2022/08/07 07:59:09;;;;;;;7.55;3.58;;;22.30;99.90;;;;;;5044027;28;20053;-69
2022/08/07 08:01:39;;;;;;;7.63;4.00;;;22.10;99.90;;;;;;5038184;28;20042;-69
2022/08/07 08:04:06;;;;;;;5.60;3.38;;;22.00;99.90;;;;;;5037087;28;20033;-68
2022/08/07 08:06:33;;;;;;;7.10;3.75;;;22.10;99.90;;;;;;5044757;28;20577;-69
2022/08/07 08:09:01;;;;;;;5.75;3.40;;;22.20;99.90;;;;;;5040011;28;20357;-69
2022/08/07 08:11:28;;;;;;;8.68;3.60;;;22.10;99.90;;;;;;5041005;28;20044;-69
2022/08/07 08:13:54;;;;;;;7.25;3.17;;;22.30;99.90;;;;;;5043003;28;20099;-70
2022/08/07 08:16:24;;;;;;;10.48;3.33;;;22.50;99.90;;;;;;5045141;28;20045;-70
2022/08/07 08:18:54;;;;;;;8.50;3.47;;;22.80;99.90;;;;;;5037171;28;20077;-72
2022/08/07 08:27:08;;;;;;;7.13;3.60;;;22.90;99.90;;;;;;5046001;28;20041;-70
2022/08/07 08:29:48;;;;;;;7.00;3.92;;;22.70;99.90;;;;;;5042788;28;20114;-70
2022/08/07 08:32:19;;;;;;;7.60;3.20;;;22.70;99.90;;;;;;5046368;28;20049;-70
2022/08/07 08:34:47;;;;;;;7.47;3.20;;;22.90;99.90;;;;;;5043788;28;20072;-71
2022/08/07 08:37:14;;;;;;;7.43;3.40;;;23.20;99.90;;;;;;5027552;28;20364;-72
2022/08/07 08:39:44;;;;;;;6.75;3.35;;;23.50;99.90;;;;;;5038889;28;20148;-72
2022/08/07 08:42:38;;;;;;;8.13;3.00;;;23.70;99.90;;;;;;5043777;28;20088;-72
2022/08/07 08:45:18;;;;;;;6.97;3.30;;;24.10;99.90;;;;;;5064648;28;20136;-72
2022/08/07 08:48:02;;;;;;;8.00;3.50;;;24.50;99.90;;;;;;5052326;28;20553;-72
2022/08/07 08:50:57;;;;;;;6.68;3.03;;;24.80;99.90;;;;;;5045879;28;20036;-72
2022/08/07 08:53:50;;;;;;;6.88;3.13;;;25.00;99.90;;;;;;5039410;28;20041;-70
2022/08/07 08:56:34;;;;;;;9.32;3.47;;;25.30;99.90;;;;;;5027315;28;20590;-72
2022/08/07 08:59:35;;;;;;;5.28;3.13;;;25.40;99.90;;;;;;5030026;28;20084;-72
2022/08/07 09:02:14;;;;;;;6.45;3.20;;;25.50;99.90;;;;;;5040252;28;20044;-71
2022/08/07 09:04:49;;;;;;;8.45;3.10;;;25.70;99.90;;;;;;5040617;28;20114;-70
2022/08/07 09:07:31;;;;;;;7.28;3.17;;;25.70;99.90;;;;;;5032818;28;20048;-70
2022/08/07 09:10:31;;;;;;;6.20;2.90;;;25.80;99.90;;;;;;5036634;28;20454;-70
2022/08/07 09:13:12;;;;;;;7.22;2.80;;;26.00;99.90;;;;;;5043433;28;20045;-72
2022/08/07 09:15:50;;;;;;;;;;;26.10;99.20;;;;;;5055168;28;20151;-74
2022/08/07 09:18:34;;;;;;;4.70;2.42;;;25.90;98.60;;;;;;5041498;28;19924;-73
2022/08/07 09:21:37;;;;;;;6.38;2.60;;;25.80;98.50;;;;;;5045518;28;20099;-72
2022/08/07 09:24:09;;;;;;;5.90;2.70;;;25.80;97.30;;;;;;5040490;28;20041;-73
2022/08/07 09:26:57;;;;;;;6.07;2.53;;;25.90;97.70;;;;;;5040993;28;20044;-72
2022/08/07 09:29:58;;;;;;;6.13;2.60;;;26.00;96.50;;;;;;5020882;28;20048;-72
2022/08/07 09:33:02;;;;;;;6.70;2.70;;;25.70;96.30;;;;;;5039096;28;20045;-73
2022/08/07 09:35:50;;;;;;;4.68;2.50;;;25.20;96.30;;;;;;5020117;28;20056;-72
2022/08/07 09:38:47;;;;;;;5.05;1.95;;;24.50;96.00;;;;;;5039765;28;20599;-73
2022/08/07 09:41:43;;;;;;;4.57;2.15;;;24.00;96.60;;;;;;5038896;28;20041;-73
2022/08/07 09:44:14;;;;;;;7.88;2.40;;;24.00;97.00;;;;;;5052323;28;20054;-72
2022/08/07 09:47:11;;;;;;;5.68;2.60;;;24.30;98.10;;;;;;5040756;28;20045;-73
2022/08/07 09:49:56;;;;;;;6.75;2.90;;;24.80;97.20;;;;;;5040238;28;20045;-75
2022/08/07 09:52:27;;;;;;;8.15;2.67;;;25.10;95.30;;;;;;5034209;28;20052;-73
2022/08/07 09:55:24;;;;;;;5.38;2.50;;;25.20;95.10;;;;;;5027414;28;20413;-75
2022/08/07 09:58:31;;;;;;;5.85;2.60;;;25.30;95.40;;;;;;5049422;28;20044;-74
2022/08/07 10:01:03;;;;;;;5.57;2.45;;;25.70;95.10;;;;;;5020306;28;20053;-74
2022/08/07 10:03:55;;;;;;;4.38;2.35;;;26.00;95.30;;;;;;5044584;28;20041;-74
2022/08/07 10:06:45;;;;;;;4.57;1.90;;;26.30;94.90;;;;;;5033334;28;20146;-74
2022/08/07 10:09:26;;;;;;;4.75;2.22;;;26.60;94.20;;;;;;5034556;28;20563;-73
2022/08/07 10:11:54;;;;;;;6.40;2.63;;;26.70;94.30;;;;;;5026998;28;20518;-73
2022/08/07 10:14:41;;;;;;;5.10;2.28;;;26.90;93.90;;;;;;5029662;28;20041;-73
2022/08/07 10:17:43;;;;;;;6.07;2.55;;;27.00;93.60;;;;;;5032254;28;20509;-71
2022/08/07 10:20:24;;;;;;;6.30;2.83;;;26.90;93.30;;;;;;5028925;28;20443;-73
2022/08/07 10:23:04;;;;;;;6.63;2.43;;;26.80;92.80;;;;;;5035409;28;20501;-73
2022/08/07 10:25:48;;;;;;;4.82;2.20;;;26.70;92.90;;;;;;5030052;28;20041;-72
2022/08/07 10:28:22;;;;;;;5.32;2.28;;;26.10;91.50;;;;;;5026164;28;20525;-73
2022/08/07 10:30:53;;;;;;;5.47;2.10;;;25.60;92.80;;;;;;5027980;28;20049;-71
2022/08/07 10:33:50;;;;;;;5.03;2.22;;;25.30;92.20;;;;;;5029115;28;20042;-73
2022/08/07 10:36:50;;;;;;;6.82;2.25;;;25.30;92.40;;;;;;5032658;28;20804;-70
2022/08/07 10:39:35;;;;;;;5.50;2.28;;;25.40;93.30;;;;;;5026915;28;20076;-73
2022/08/07 10:42:26;;;;;;;9.88;2.20;;;25.60;93.40;;;;;;5027709;28;20165;-69
2022/08/07 10:45:16;;;;;;;4.05;2.13;;;25.60;92.90;;;;;;5034597;28;20397;-73
2022/08/07 10:47:48;;;;;;;5.35;2.30;;;25.20;92.50;;;;;;5028898;28;20523;-71
2022/08/07 10:50:41;;;;;;;4.45;2.03;;;24.80;92.90;;;;;;5037672;28;20057;-70
2022/08/07 10:53:16;;;;;;;5.80;1.88;;;25.00;93.00;;;;;;5032963;28;20048;-71
2022/08/07 10:56:06;;;;;;;3.60;1.70;;;25.20;92.60;;;;;;5031993;28;20076;-71
2022/08/07 10:58:52;;;;;;;5.22;1.70;;;25.40;92.50;;;;;;5030942;28;20053;-72
2022/08/07 11:01:28;;;;;;;4.05;1.90;;;25.70;91.00;;;;;;5027782;28;20076;-69
2022/08/07 11:04:07;;;;;;;7.93;2.08;;;26.00;91.70;;;;;;5015619;28;20540;-70
2022/08/07 11:06:48;;;;;;;3.38;1.98;;;26.20;91.60;;;;;;5028766;28;20047;-69
2022/08/07 11:09:18;;;;;;;;;;;26.30;90.90;;;;;;5028662;28;20122;-71
2022/08/07 11:12:02;;;;;;;4.20;2.20;;;26.40;91.30;;;;;;5052530;28;20007;-70
2022/08/07 11:14:44;;;;;;;4.57;2.15;;;26.50;91.30;;;;;;5017405;28;20055;-69
2022/08/07 11:17:33;;;;;;;4.10;1.80;;;26.20;90.60;;;;;;5023035;28;20486;-72
2022/08/07 11:20:20;;;;;;;4.65;2.38;;;26.00;91.50;;;;;;5031722;28;20504;-71
2022/08/07 11:23:17;;;;;;;4.50;2.08;;;26.00;90.40;;;;;;5030028;28;20311;-69
2022/08/07 11:26:02;;;;;;;5.53;2.13;;;25.80;91.10;;;;;;5033176;28;20067;-68
2022/08/07 11:28:34;;;;;;;6.32;2.15;;;25.70;91.30;;;;;;5028134;28;20060;-70
2022/08/07 11:31:25;;;;;;;4.15;1.90;;;25.30;91.20;;;;;;5029148;28;20079;-70
2022/08/07 11:34:07;;;;;;;3.67;1.80;;;25.30;91.90;;;;;;5026856;28;20132;-70
2022/08/07 11:36:39;;;;;;;3.88;2.10;;;25.50;92.40;;;;;;5027873;28;20049;-70
2022/08/07 11:39:12;;;;;;;5.60;2.10;;;25.80;92.20;;;;;;5030388;28;20037;-70
2022/08/07 11:41:46;;;;;;;4.20;1.80;;;25.90;90.70;;;;;;5037288;28;20052;-68
2022/08/07 11:44:55;;;;;;;5.32;1.80;;;25.90;91.00;;;;;;5035684;28;20056;-71
2022/08/07 11:47:39;;;;;;;3.58;1.70;;;26.10;90.90;;;;;;5043164;28;20137;-70
2022/08/07 11:50:33;;;;;;;4.60;2.08;;;26.30;91.60;;;;;;5041686;28;20145;-71
2022/08/07 11:53:23;;;;;;;2.42;1.30;;;26.40;90.00;;;;;;5042371;28;20044;-69
2022/08/07 11:56:13;;;;;;;4.65;1.73;;;26.50;89.00;;;;;;5037659;28;20510;-70
2022/08/07 11:59:17;;;;;;;4.35;1.60;;;26.60;86.80;;;;;;5024025;28;20057;-70
2022/08/07 12:02:18;;;;;;;3.97;1.80;;;26.60;86.10;;;;;;5040371;28;20103;-71
2022/08/07 12:05:15;;;;;;;10.27;1.92;;;26.70;87.30;;;;;;5038530;28;20080;-70
2022/08/07 12:07:52;;;;;;;229.68;14.60;;;26.90;87.80;;;;;;5041068;28;20072;-73
2022/08/07 12:10:38;;;;;;;26.60;3.17;;;26.80;86.60;;;;;;5043225;28;20056;-73
2022/08/07 12:13:33;;;;;;;8.52;1.70;;;26.40;85.80;;;;;;5038370;28;20048;-74
2022/08/07 12:16:15;;;;;;;6.85;2.00;;;25.90;87.30;;;;;;5041713;28;20061;-72
2022/08/07 12:19:11;;;;;;;7.38;1.77;;;25.40;86.70;;;;;;5040194;28;20486;-74
2022/08/07 12:22:05;;;;;;;5.60;2.00;;;25.00;87.90;;;;;;5037119;28;20411;-73
2022/08/07 12:27:42;;;;;;;4.72;2.00;;;24.30;89.70;;;;;;5037746;28;20056;-73
2022/08/07 12:30:09;;;;;;;4.97;1.98;;;24.00;90.40;;;;;;5043503;28;20048;-73
2022/08/07 12:32:43;;;;;;;5.10;2.45;;;23.80;91.10;;;;;;5023759;28;20052;-74
2022/08/07 12:35:13;;;;;;;5.68;2.30;;;23.60;91.40;;;;;;5041586;28;20040;-72
2022/08/07 12:37:42;;;;;;;9.52;2.30;;;23.50;91.90;;;;;;5035365;28;20043;-72
2022/08/07 12:40:09;;;;;;;14.05;3.33;;;23.40;92.20;;;;;;5039065;28;20515;-72
2022/08/07 12:42:36;;;;;;;7.28;2.50;;;23.40;92.40;;;;;;5042204;28;20044;-73
2022/08/07 12:45:10;;;;;;;5.60;2.25;;;23.30;92.80;;;;;;5039058;28;20044;-73
2022/08/07 12:48:09;;;;;;;6.32;2.47;;;23.30;93.00;;;;;;5035861;28;20087;-74
2022/08/07 12:50:58;;;;;;;6.72;2.42;;;23.30;93.40;;;;;;5034719;28;20045;-72
2022/08/07 12:53:55;;;;;;;7.13;2.25;;;23.30;93.50;;;;;;5042773;28;20037;-72
2022/08/07 12:56:27;;;;;;;7.65;2.30;;;23.30;93.70;;;;;;5042628;28;20045;-74
2022/08/07 12:58:54;;;;;;;5.85;2.10;;;23.40;93.90;;;;;;5040967;28;20059;-74
2022/08/07 13:01:40;;;;;;;4.38;2.17;;;23.40;93.40;;;;;;5038596;28;20171;-73
2022/08/07 13:04:30;;;;;;;4.78;1.90;;;23.40;92.70;;;;;;5036659;28;20557;-74
2022/08/07 13:07:23;;;;;;;5.88;1.88;;;23.40;92.90;;;;;;5037523;28;20053;-74
2022/08/07 13:09:59;;;;;;;5.97;2.00;;;23.40;93.10;;;;;;5034667;28;20044;-74
2022/08/07 13:12:31;;;;;;;5.00;2.00;;;23.50;93.10;;;;;;5023766;28;20049;-75
2022/08/07 13:15:21;;;;;;;5.55;2.05;;;23.50;93.00;;;;;;5033401;28;20398;-74
2022/08/07 13:18:02;;;;;;;7.20;2.20;;;23.40;92.70;;;;;;5035385;28;20704;-74
2022/08/07 13:20:38;;;;;;;;;;;23.40;93.50;;;;;;5041185;28;20497;-73
2022/08/07 13:23:16;;;;;;;5.53;2.17;;;23.40;93.60;;;;;;5027633;28;19975;-74
2022/08/07 13:25:57;;;;;;;6.97;2.20;;;23.30;93.10;;;;;;5036129;28;20060;-74